首页
METAR-TAF:

METAR-TAF

机场 :

塔拉迪加, 阿拉巴马州, 美国

纬度: 33-34-10N, 经度: 086-03-04W, 海拔: 160米

当前天气观测

该预报发布于11分钟前的23:35 UTC
风速6节,风向西转西北
温度 13°C
湿度 88%
气压 1020 hPa
能見度: 16.1公里
散云层高于2600英尺
多云层高于4000英尺
多云层高于4900英尺
小毛毛雨

METAR: KASN 132335Z AUTO 29006KT 10SM -DZ SCT026 BKN040 BKN049 13/11 A3011 RMK AO2 P0001 T01320114

时间: 18:46 (23:46 UTC)

预报

该预报发布于26分钟前的23:20 UTC
预报有效从14日的 00点(UTC)到 14日的 24点(UTC)
风速5节,风向西
能見度: 9.7公里
散云层高于3500英尺
阴天层高于8000英尺
小雨, 轻雾
从 14日的 0600点(UTC)
风速3节,风向多变
能見度: 10公里
阴天层高于5000英尺
从 14日的 1500点(UTC)
风速5节,风向多变
能見度: 10公里
阴天层高于10000英尺

TAF: KASN 132320Z 1400/1424 27005KT 6SM -RA BR SCT035 OVC080 FM140600 VRB03KT P6SM OVC050 FM141500 VRB05KT P6SM OVC100

超过4000个机场的气象观测和天气预报(METAR&TAF报告)。

可查询的气象台以黄色和红色小点在地图上表示。

将鼠标移到小点上方,可查看气象台名称。

然后点击查看天气观测和预报。

如需切换地图:点击带黑十字的绿色按钮放大地图;点击带横线的绿色按钮缩小地图;或者点击绿色箭头查看邻近地区的地图。


METAR-TAF: